sensor_id;sensor_type;location;lat;lon;timestamp;pressure;altitude;pressure_sealevel;temperature;humidity
33075;BME280;19433;51.292;6.868;2022-09-20T19:48:53;101278.56;;;10.33;100.00
33075;BME280;19433;51.292;6.868;2022-09-20T19:51:20;101279.22;;;10.04;100.00
33075;BME280;19433;51.292;6.868;2022-09-20T19:53:46;101273.28;;;9.84;100.00
33075;BME280;19433;51.292;6.868;2022-09-20T19:56:26;101286.53;;;9.49;100.00
33075;BME280;19433;51.292;6.868;2022-09-20T19:58:53;101268.50;;;9.31;100.00
33075;BME280;19433;51.292;6.868;2022-09-20T20:01:21;101275.97;;;9.14;100.00
33075;BME280;19433;51.292;6.868;2022-09-20T20:14:28;101284.94;;;9.00;100.00
33075;BME280;19433;51.292;6.868;2022-09-20T20:20:22;101274.78;;;8.60;100.00
33075;BME280;19433;51.292;6.868;2022-09-20T20:28:50;101282.91;;;8.53;100.00
33075;BME280;19433;51.292;6.868;2022-09-20T20:31:16;101297.00;;;8.66;100.00
33075;BME280;19433;51.292;6.868;2022-09-20T20:33:43;101292.88;;;8.78;100.00
33075;BME280;19433;51.292;6.868;2022-09-20T20:36:08;101308.91;;;8.83;100.00
33075;BME280;19433;51.292;6.868;2022-09-20T20:38:39;101282.88;;;8.77;100.00
33075;BME280;19433;51.292;6.868;2022-09-20T20:41:08;101302.16;;;8.94;100.00
33075;BME280;19433;51.292;6.868;2022-09-20T20:43:37;101293.56;;;8.89;100.00
33075;BME280;19433;51.292;6.868;2022-09-20T20:46:44;101329.38;;;9.13;100.00
33075;BME280;19433;51.292;6.868;2022-09-20T20:49:28;101335.19;;;9.18;100.00
33075;BME280;19433;51.292;6.868;2022-09-20T20:52:20;101298.00;;;9.06;100.00
33075;BME280;19433;51.292;6.868;2022-09-20T20:54:57;101316.94;;;9.17;100.00
33075;BME280;19433;51.292;6.868;2022-09-20T20:57:25;101334.69;;;9.23;100.00
33075;BME280;19433;51.292;6.868;2022-09-20T20:59:52;101308.34;;;9.12;100.00
33075;BME280;19433;51.292;6.868;2022-09-20T21:02:24;101307.31;;;9.13;100.00
33075;BME280;19433;51.292;6.868;2022-09-20T21:04:55;101304.56;;;9.13;100.00
33075;BME280;19433;51.292;6.868;2022-09-20T21:07:21;101333.81;;;9.22;100.00
33075;BME280;19433;51.292;6.868;2022-09-20T21:09:46;101311.97;;;9.12;100.00
33075;BME280;19433;51.292;6.868;2022-09-20T21:12:12;101324.53;;;9.07;100.00
33075;BME280;19433;51.292;6.868;2022-09-20T21:14:38;101310.94;;;9.05;100.00
33075;BME280;19433;51.292;6.868;2022-09-20T21:17:05;101318.00;;;9.08;100.00
33075;BME280;19433;51.292;6.868;2022-09-20T21:19:31;101339.69;;;9.19;100.00
33075;BME280;19433;51.292;6.868;2022-09-20T21:21:56;101357.47;;;9.16;100.00
33075;BME280;19433;51.292;6.868;2022-09-20T21:24:22;101322.84;;;8.81;100.00
33075;BME280;19433;51.292;6.868;2022-09-20T21:27:13;101345.56;;;8.92;100.00
33075;BME280;19433;51.292;6.868;2022-09-20T21:29:40;101331.97;;;8.66;100.00
33075;BME280;19433;51.292;6.868;2022-09-20T21:32:09;101324.03;;;8.46;100.00
33075;BME280;19433;51.292;6.868;2022-09-20T21:34:34;101365.53;;;8.61;100.00
33075;BME280;19433;51.292;6.868;2022-09-20T21:37:00;101341.41;;;8.47;100.00
33075;BME280;19433;51.292;6.868;2022-09-20T21:39:28;101321.69;;;8.26;100.00
33075;BME280;19433;51.292;6.868;2022-09-20T21:41:56;101320.84;;;8.17;100.00
33075;BME280;19433;51.292;6.868;2022-09-20T21:44:24;101329.25;;;8.07;100.00
33075;BME280;19433;51.292;6.868;2022-09-20T21:46:51;101337.34;;;8.17;100.00
33075;BME280;19433;51.292;6.868;2022-09-20T21:49:17;101352.78;;;8.10;100.00
33075;BME280;19433;51.292;6.868;2022-09-20T21:51:43;101324.81;;;7.81;100.00
33075;BME280;19433;51.292;6.868;2022-09-20T21:54:09;101336.19;;;7.78;100.00
33075;BME280;19433;51.292;6.868;2022-09-20T21:56:41;101329.13;;;7.75;100.00
33075;BME280;19433;51.292;6.868;2022-09-20T21:59:07;101332.69;;;7.67;100.00
33075;BME280;19433;51.292;6.868;2022-09-20T22:01:38;101332.66;;;7.59;100.00
33075;BME280;19433;51.292;6.868;2022-09-20T22:04:11;101333.84;;;7.57;100.00
33075;BME280;19433;51.292;6.868;2022-09-20T22:06:43;101330.00;;;7.50;100.00
33075;BME280;19433;51.292;6.868;2022-09-20T22:09:17;101358.19;;;7.52;100.00
33075;BME280;19433;51.292;6.868;2022-09-20T22:11:46;101364.25;;;7.55;100.00
33075;BME280;19433;51.292;6.868;2022-09-20T22:14:13;101347.19;;;7.44;100.00
33075;BME280;19433;51.292;6.868;2022-09-20T22:16:42;101330.75;;;7.26;100.00
33075;BME280;19433;51.292;6.868;2022-09-20T22:19:15;101343.03;;;7.14;100.00
33075;BME280;19433;51.292;6.868;2022-09-20T22:21:45;101335.84;;;7.21;100.00
33075;BME280;19433;51.292;6.868;2022-09-20T22:24:12;101323.13;;;7.46;100.00
33075;BME280;19433;51.292;6.868;2022-09-20T22:26:43;101339.38;;;7.31;100.00
33075;BME280;19433;51.292;6.868;2022-09-20T22:29:13;101371.53;;;7.38;100.00
33075;BME280;19433;51.292;6.868;2022-09-20T22:31:46;101337.16;;;7.09;100.00
33075;BME280;19433;51.292;6.868;2022-09-20T22:34:37;101352.69;;;7.18;100.00
33075;BME280;19433;51.292;6.868;2022-09-20T22:37:03;101326.03;;;6.92;100.00
33075;BME280;19433;51.292;6.868;2022-09-20T22:39:36;101328.72;;;6.84;100.00
33075;BME280;19433;51.292;6.868;2022-09-20T22:42:04;101333.28;;;6.76;100.00
33075;BME280;19433;51.292;6.868;2022-09-20T22:44:32;101327.72;;;6.67;100.00
33075;BME280;19433;51.292;6.868;2022-09-20T22:47:00;101341.50;;;6.76;100.00
33075;BME280;19433;51.292;6.868;2022-09-20T22:49:27;101327.56;;;6.69;100.00
33075;BME280;19433;51.292;6.868;2022-09-20T22:51:58;101332.66;;;6.64;100.00
33075;BME280;19433;51.292;6.868;2022-09-20T22:54:26;101341.38;;;6.59;100.00
33075;BME280;19433;51.292;6.868;2022-09-20T22:56:53;101325.13;;;6.66;100.00
33075;BME280;19433;51.292;6.868;2022-09-20T22:59:18;101331.81;;;6.63;100.00
33075;BME280;19433;51.292;6.868;2022-09-20T23:01:57;101345.13;;;6.76;100.00
33075;BME280;19433;51.292;6.868;2022-09-20T23:04:28;101357.09;;;6.93;100.00
33075;BME280;19433;51.292;6.868;2022-09-20T23:06:57;101346.94;;;6.67;100.00
33075;BME280;19433;51.292;6.868;2022-09-20T23:09:25;101343.81;;;6.62;100.00
33075;BME280;19433;51.292;6.868;2022-09-20T23:11:52;101340.75;;;6.65;100.00
33075;BME280;19433;51.292;6.868;2022-09-20T23:14:22;101340.88;;;6.82;100.00
33075;BME280;19433;51.292;6.868;2022-09-20T23:16:53;101336.88;;;6.76;100.00
33075;BME280;19433;51.292;6.868;2022-09-20T23:19:26;101354.72;;;6.72;100.00
33075;BME280;19433;51.292;6.868;2022-09-20T23:21:52;101353.22;;;6.78;100.00
33075;BME280;19433;51.292;6.868;2022-09-20T23:24:21;101338.91;;;6.74;100.00
33075;BME280;19433;51.292;6.868;2022-09-20T23:26:51;101343.94;;;6.79;100.00
33075;BME280;19433;51.292;6.868;2022-09-20T23:29:24;101353.47;;;6.66;100.00
33075;BME280;19433;51.292;6.868;2022-09-20T23:32:07;101353.66;;;6.91;100.00
33075;BME280;19433;51.292;6.868;2022-09-20T23:34:38;101348.84;;;6.67;100.00
33075;BME280;19433;51.292;6.868;2022-09-20T23:37:08;101345.47;;;6.55;100.00
33075;BME280;19433;51.292;6.868;2022-09-20T23:39:36;101344.50;;;6.47;100.00
33075;BME280;19433;51.292;6.868;2022-09-20T23:42:03;101341.75;;;6.29;100.00
33075;BME280;19433;51.292;6.868;2022-09-20T23:44:30;101348.66;;;6.33;100.00
33075;BME280;19433;51.292;6.868;2022-09-20T23:46:59;101341.59;;;6.30;100.00
33075;BME280;19433;51.292;6.868;2022-09-20T23:49:35;101350.88;;;6.47;100.00
33075;BME280;19433;51.292;6.868;2022-09-20T23:52:03;101338.47;;;6.43;100.00
33075;BME280;19433;51.292;6.868;2022-09-20T23:54:38;101338.81;;;6.40;100.00
33075;BME280;19433;51.292;6.868;2022-09-20T23:57:04;101341.16;;;6.53;100.00
33075;BME280;19433;51.292;6.868;2022-09-20T23:59:29;101337.13;;;6.47;100.00
